sensor_id;sensor_type;location;lat;lon;timestamp;pressure;altitude;pressure_sealevel;temperature;humidity
46583;BME280;32309;48.858;8.252;2023-07-24T01:06:55;99432.88;;;19.58;71.55
46583;BME280;32309;48.858;8.252;2023-07-24T01:17:59;99437.53;;;19.48;68.41
46583;BME280;32309;48.858;8.252;2023-07-24T01:20:02;99439.31;;;19.48;71.99
46583;BME280;32309;48.858;8.252;2023-07-24T01:25:09;99440.31;;;19.38;69.15
46583;BME280;32309;48.858;8.252;2023-07-24T01:27:23;99433.75;;;19.34;72.12
46583;BME280;32309;48.858;8.252;2023-07-24T01:29:23;99438.22;;;19.34;70.58
46583;BME280;32309;48.858;8.252;2023-07-24T01:31:34;99440.16;;;19.32;70.18
46583;BME280;32309;48.858;8.252;2023-07-24T01:33:37;99442.28;;;19.28;71.01
46583;BME280;32309;48.858;8.252;2023-07-24T01:35:45;99440.69;;;19.27;72.98
46583;BME280;32309;48.858;8.252;2023-07-24T01:38:06;99438.19;;;19.25;71.19
46583;BME280;32309;48.858;8.252;2023-07-24T01:40:16;99437.88;;;19.20;71.90
46583;BME280;32309;48.858;8.252;2023-07-24T01:42:17;99431.78;;;19.20;72.51
46583;BME280;32309;48.858;8.252;2023-07-24T01:44:27;99430.16;;;19.19;72.74
46583;BME280;32309;48.858;8.252;2023-07-24T01:46:34;99436.06;;;19.21;72.97
46583;BME280;32309;48.858;8.252;2023-07-24T01:48:50;99443.28;;;19.19;73.64
46583;BME280;32309;48.858;8.252;2023-07-24T01:50:54;99449.38;;;19.19;74.09
46583;BME280;32309;48.858;8.252;2023-07-24T01:52:57;99439.69;;;19.20;74.00
46583;BME280;32309;48.858;8.252;2023-07-24T01:54:58;99439.50;;;19.21;74.25
46583;BME280;32309;48.858;8.252;2023-07-24T01:57:04;99430.81;;;19.21;69.68
46583;BME280;32309;48.858;8.252;2023-07-24T01:59:07;99421.28;;;19.20;72.94
46583;BME280;32309;48.858;8.252;2023-07-24T02:01:07;99426.72;;;19.18;73.14
46583;BME280;32309;48.858;8.252;2023-07-24T02:03:10;99423.28;;;19.18;74.20
46583;BME280;32309;48.858;8.252;2023-07-24T02:05:13;99423.28;;;19.18;72.50
46583;BME280;32309;48.858;8.252;2023-07-24T02:07:14;99418.84;;;19.18;73.54
46583;BME280;32309;48.858;8.252;2023-07-24T02:09:14;99410.94;;;19.18;74.48
46583;BME280;32309;48.858;8.252;2023-07-24T02:11:18;99412.91;;;19.16;71.33
46583;BME280;32309;48.858;8.252;2023-07-24T02:13:21;99403.59;;;19.14;72.99
46583;BME280;32309;48.858;8.252;2023-07-24T02:15:24;99409.81;;;19.12;71.22
46583;BME280;32309;48.858;8.252;2023-07-24T02:17:24;99402.09;;;19.11;73.89
46583;BME280;32309;48.858;8.252;2023-07-24T02:19:25;99401.94;;;19.12;73.48
46583;BME280;32309;48.858;8.252;2023-07-24T02:21:45;99403.59;;;19.14;71.26
46583;BME280;32309;48.858;8.252;2023-07-24T02:23:53;99400.28;;;19.11;73.81
46583;BME280;32309;48.858;8.252;2023-07-24T02:25:53;99395.03;;;19.11;74.63
46583;BME280;32309;48.858;8.252;2023-07-24T02:27:54;99394.69;;;19.15;74.79
46583;BME280;32309;48.858;8.252;2023-07-24T02:29:54;99396.16;;;19.17;73.53
46583;BME280;32309;48.858;8.252;2023-07-24T02:31:54;99394.03;;;19.21;74.31
46583;BME280;32309;48.858;8.252;2023-07-24T02:33:57;99393.88;;;19.22;73.95
46583;BME280;32309;48.858;8.252;2023-07-24T02:35:58;99393.88;;;19.22;73.31
46583;BME280;32309;48.858;8.252;2023-07-24T02:38:00;99390.09;;;19.25;73.68
46583;BME280;32309;48.858;8.252;2023-07-24T02:40:00;99388.94;;;19.27;73.78
46583;BME280;32309;48.858;8.252;2023-07-24T02:42:03;99381.06;;;19.27;74.02
46583;BME280;32309;48.858;8.252;2023-07-24T02:44:04;99384.84;;;19.25;73.68
46583;BME280;32309;48.858;8.252;2023-07-24T02:46:04;99383.84;;;19.26;73.75
46583;BME280;32309;48.858;8.252;2023-07-24T02:48:05;99379.25;;;19.28;73.63
46583;BME280;32309;48.858;8.252;2023-07-24T02:50:06;99373.19;;;19.27;73.06
46583;BME280;32309;48.858;8.252;2023-07-24T02:52:06;99364.16;;;19.30;74.12
46583;BME280;32309;48.858;8.252;2023-07-24T02:54:07;99360.19;;;19.34;73.52
46583;BME280;32309;48.858;8.252;2023-07-24T02:56:10;99363.00;;;19.33;73.53
46583;BME280;32309;48.858;8.252;2023-07-24T02:58:13;99355.91;;;19.33;73.53
46583;BME280;32309;48.858;8.252;2023-07-24T03:00:17;99363.00;;;19.33;72.38
46583;BME280;32309;48.858;8.252;2023-07-24T03:02:17;99361.19;;;19.33;73.60
46583;BME280;32309;48.858;8.252;2023-07-24T03:04:17;99359.38;;;19.34;73.66
46583;BME280;32309;48.858;8.252;2023-07-24T03:06:18;99347.91;;;19.35;73.53
46583;BME280;32309;48.858;8.252;2023-07-24T03:08:18;99340.00;;;19.35;72.93
46583;BME280;32309;48.858;8.252;2023-07-24T03:10:18;99341.00;;;19.34;72.64
46583;BME280;32309;48.858;8.252;2023-07-24T03:12:19;99336.38;;;19.36;73.40
46583;BME280;32309;48.858;8.252;2023-07-24T03:14:19;99334.91;;;19.33;72.50
46583;BME280;32309;48.858;8.252;2023-07-24T03:16:19;99339.69;;;19.29;73.24
46583;BME280;32309;48.858;8.252;2023-07-24T03:18:21;99355.47;;;19.29;73.19
46583;BME280;32309;48.858;8.252;2023-07-24T03:20:21;99354.63;;;19.29;73.10
46583;BME280;32309;48.858;8.252;2023-07-24T03:22:22;99353.63;;;19.30;72.68
46583;BME280;32309;48.858;8.252;2023-07-24T03:24:22;99351.81;;;19.31;73.21
46583;BME280;32309;48.858;8.252;2023-07-24T03:26:23;99354.44;;;19.31;71.41
46583;BME280;32309;48.858;8.252;2023-07-24T03:28:23;99356.25;;;19.30;73.09
46583;BME280;32309;48.858;8.252;2023-07-24T03:30:23;99352.16;;;19.27;73.38
46583;BME280;32309;48.858;8.252;2023-07-24T03:32:24;99359.88;;;19.29;73.52
46583;BME280;32309;48.858;8.252;2023-07-24T03:34:24;99353.97;;;19.27;72.79
46583;BME280;32309;48.858;8.252;2023-07-24T03:36:24;99354.13;;;19.25;73.08
46583;BME280;32309;48.858;8.252;2023-07-24T03:38:27;99360.03;;;19.27;73.18
46583;BME280;32309;48.858;8.252;2023-07-24T03:40:30;99347.88;;;19.26;73.95
46583;BME280;32309;48.858;8.252;2023-07-24T03:42:31;99364.31;;;19.28;73.42
46583;BME280;32309;48.858;8.252;2023-07-24T03:44:37;99359.25;;;19.27;73.92
46583;BME280;32309;48.858;8.252;2023-07-24T03:46:38;99361.69;;;19.28;73.60
46583;BME280;32309;48.858;8.252;2023-07-24T03:48:41;99361.69;;;19.28;71.24
46583;BME280;32309;48.858;8.252;2023-07-24T03:50:41;99357.25;;;19.29;73.38
46583;BME280;32309;48.858;8.252;2023-07-24T03:52:41;99351.19;;;19.28;72.49
46583;BME280;32309;48.858;8.252;2023-07-24T03:54:42;99349.53;;;19.27;74.15
46583;BME280;32309;48.858;8.252;2023-07-24T03:56:42;99359.06;;;19.28;74.03
46583;BME280;32309;48.858;8.252;2023-07-24T03:58:43;99360.22;;;19.26;74.22
46583;BME280;32309;48.858;8.252;2023-07-24T04:00:43;99366.44;;;19.25;73.41
46583;BME280;32309;48.858;8.252;2023-07-24T04:02:43;99355.94;;;19.25;73.27
46583;BME280;32309;48.858;8.252;2023-07-24T04:04:44;99347.09;;;19.26;72.88
46583;BME280;32309;48.858;8.252;2023-07-24T04:06:45;99350.53;;;19.26;73.08
46583;BME280;32309;48.858;8.252;2023-07-24T04:08:46;99343.31;;;19.28;73.29
46583;BME280;32309;48.858;8.252;2023-07-24T04:10:46;99341.84;;;19.26;73.39
46583;BME280;32309;48.858;8.252;2023-07-24T04:12:46;99340.84;;;19.27;73.20
46583;BME280;32309;48.858;8.252;2023-07-24T04:14:46;99344.28;;;19.27;72.99
46583;BME280;32309;48.858;8.252;2023-07-24T04:16:48;99335.41;;;19.28;73.42
46583;BME280;32309;48.858;8.252;2023-07-24T04:18:49;99332.13;;;19.26;70.09
46583;BME280;32309;48.858;8.252;2023-07-24T04:20:49;99330.66;;;19.24;72.90
46583;BME280;32309;48.858;8.252;2023-07-24T04:22:49;99340.19;;;19.25;72.95
46583;BME280;32309;48.858;8.252;2023-07-24T04:24:50;99327.84;;;19.25;73.43
46583;BME280;32309;48.858;8.252;2023-07-24T04:26:50;99326.25;;;19.24;73.09
46583;BME280;32309;48.858;8.252;2023-07-24T04:28:50;99327.03;;;19.25;73.66
46583;BME280;32309;48.858;8.252;2023-07-24T04:30:50;99324.91;;;19.28;73.56
46583;BME280;32309;48.858;8.252;2023-07-24T04:32:51;99324.91;;;19.28;73.57
46583;BME280;32309;48.858;8.252;2023-07-24T04:34:51;99321.13;;;19.31;73.85
46583;BME280;32309;48.858;8.252;2023-07-24T04:36:51;99327.03;;;19.33;74.33
46583;BME280;32309;48.858;8.252;2023-07-24T04:38:54;99321.63;;;19.35;73.64
46583;BME280;32309;48.858;8.252;2023-07-24T04:40:54;99315.34;;;19.36;73.39
46583;BME280;32309;48.858;8.252;2023-07-24T04:42:55;99317.97;;;19.36;73.94
46583;BME280;32309;48.858;8.252;2023-07-24T04:44:55;99316.38;;;19.35;74.39
46583;BME280;32309;48.858;8.252;2023-07-24T04:46:55;99316.38;;;19.35;74.26
46583;BME280;32309;48.858;8.252;2023-07-24T04:48:56;99308.47;;;19.35;74.48
46583;BME280;32309;48.858;8.252;2023-07-24T04:50:56;99305.19;;;19.33;74.42
46583;BME280;32309;48.858;8.252;2023-07-24T04:52:56;99315.69;;;19.33;75.18
46583;BME280;32309;48.858;8.252;2023-07-24T04:54:57;99315.69;;;19.33;73.41
46583;BME280;32309;48.858;8.252;2023-07-24T04:56:57;99324.56;;;19.32;74.22
46583;BME280;32309;48.858;8.252;2023-07-24T04:58:57;99335.91;;;19.32;74.38
46583;BME280;32309;48.858;8.252;2023-07-24T05:01:01;99345.41;;;19.33;74.88
46583;BME280;32309;48.858;8.252;2023-07-24T05:03:05;99344.59;;;19.33;75.06
46583;BME280;32309;48.858;8.252;2023-07-24T05:05:06;99346.25;;;19.34;75.43
46583;BME280;32309;48.858;8.252;2023-07-24T05:07:07;99350.34;;;19.36;75.41
46583;BME280;32309;48.858;8.252;2023-07-24T05:09:07;99346.72;;;19.37;73.71
46583;BME280;32309;48.858;8.252;2023-07-24T05:11:07;99348.03;;;19.41;75.70
46583;BME280;32309;48.858;8.252;2023-07-24T05:13:08;99339.00;;;19.44;75.34
46583;BME280;32309;48.858;8.252;2023-07-24T05:15:08;99330.94;;;19.45;75.57
46583;BME280;32309;48.858;8.252;2023-07-24T05:17:09;99330.28;;;19.43;73.36
46583;BME280;32309;48.858;8.252;2023-07-24T05:19:09;99326.66;;;19.44;75.93
46583;BME280;32309;48.858;8.252;2023-07-24T05:21:09;99339.81;;;19.44;76.29
46583;BME280;32309;48.858;8.252;2023-07-24T05:23:10;99346.72;;;19.45;76.13
46583;BME280;32309;48.858;8.252;2023-07-24T05:25:10;99357.69;;;19.49;74.04
46583;BME280;32309;48.858;8.252;2023-07-24T05:27:10;99362.94;;;19.49;76.83
46583;BME280;32309;48.858;8.252;2023-07-24T05:29:12;99367.38;;;19.49;77.43
46583;BME280;32309;48.858;8.252;2023-07-24T05:31:12;99376.91;;;19.50;77.53
46583;BME280;32309;48.858;8.252;2023-07-24T05:33:12;99378.06;;;19.47;74.65
46583;BME280;32309;48.858;8.252;2023-07-24T05:35:13;99379.06;;;19.46;75.47
46583;BME280;32309;48.858;8.252;2023-07-24T05:37:13;99383.00;;;19.42;77.40
46583;BME280;32309;48.858;8.252;2023-07-24T05:39:13;99376.09;;;19.41;76.19
46583;BME280;32309;48.858;8.252;2023-07-24T05:41:13;99372.00;;;19.38;74.41
46583;BME280;32309;48.858;8.252;2023-07-24T05:43:14;99370.34;;;19.37;77.49
46583;BME280;32309;48.858;8.252;2023-07-24T06:01:32;99360.16;;;19.42;77.95
46583;BME280;32309;48.858;8.252;2023-07-24T06:03:33;99363.63;;;19.43;77.97
46583;BME280;32309;48.858;8.252;2023-07-24T06:05:33;99360.16;;;19.42;76.86
46583;BME280;32309;48.858;8.252;2023-07-24T06:07:33;99361.63;;;19.45;77.82
46583;BME280;32309;48.858;8.252;2023-07-24T06:09:34;99361.50;;;19.47;76.88
46583;BME280;32309;48.858;8.252;2023-07-24T06:11:34;99362.94;;;19.49;78.09
46583;BME280;32309;48.858;8.252;2023-07-24T06:13:34;99356.69;;;19.50;76.34
46583;BME280;32309;48.858;8.252;2023-07-24T06:15:35;99362.28;;;19.55;77.19
46583;BME280;32309;48.858;8.252;2023-07-24T06:17:35;99374.59;;;19.55;77.98
46583;BME280;32309;48.858;8.252;2023-07-24T06:19:35;99371.00;;;19.56;77.79
46583;BME280;32309;48.858;8.252;2023-07-24T06:21:36;99366.38;;;19.58;76.29
46583;BME280;32309;48.858;8.252;2023-07-24T06:23:36;99378.19;;;19.62;77.86
46583;BME280;32309;48.858;8.252;2023-07-24T06:25:36;99378.50;;;19.67;77.76
46583;BME280;32309;48.858;8.252;2023-07-24T06:27:36;99375.38;;;19.72;77.85
46583;BME280;32309;48.858;8.252;2023-07-24T06:29:37;99368.78;;;19.76;76.26
46583;BME280;32309;48.858;8.252;2023-07-24T06:31:37;99368.13;;;19.82;76.28
46583;BME280;32309;48.858;8.252;2023-07-24T06:33:38;99359.06;;;19.85;76.92
46583;BME280;32309;48.858;8.252;2023-07-24T06:35:38;99353.31;;;19.89;75.88
46583;BME280;32309;48.858;8.252;2023-07-24T06:37:38;99351.97;;;19.93;74.92
46583;BME280;32309;48.858;8.252;2023-07-24T06:39:39;99358.34;;;19.99;75.48
46583;BME280;32309;48.858;8.252;2023-07-24T06:41:39;99356.03;;;20.04;75.24
46583;BME280;32309;48.858;8.252;2023-07-24T06:43:39;99353.69;;;20.09;73.84
46583;BME280;32309;48.858;8.252;2023-07-24T06:45:39;99359.28;;;20.15;74.06
46583;BME280;32309;48.858;8.252;2023-07-24T06:47:40;99353.94;;;20.23;74.74
46583;BME280;32309;48.858;8.252;2023-07-24T06:49:40;99346.53;;;20.26;72.27
46583;BME280;32309;48.858;8.252;2023-07-24T06:51:40;99351.28;;;20.31;72.77
46583;BME280;32309;48.858;8.252;2023-07-24T06:53:41;99348.78;;;20.38;73.90
46583;BME280;32309;48.858;8.252;2023-07-24T06:55:41;99355.81;;;20.45;74.15
46583;BME280;32309;48.858;8.252;2023-07-24T06:57:41;99354.47;;;20.50;74.14
46583;BME280;32309;48.858;8.252;2023-07-24T06:59:42;99358.88;;;20.49;74.90
46583;BME280;32309;48.858;8.252;2023-07-24T07:01:42;99379.50;;;20.45;72.58
46583;BME280;32309;48.858;8.252;2023-07-24T07:03:42;99374.09;;;20.39;74.83
46583;BME280;32309;48.858;8.252;2023-07-24T07:49:06;99399.00;;;19.88;80.16
46583;BME280;32309;48.858;8.252;2023-07-24T08:16:03;99334.75;;;20.45;78.71
46583;BME280;32309;48.858;8.252;2023-07-24T08:18:03;99325.31;;;20.51;81.56
46583;BME280;32309;48.858;8.252;2023-07-24T08:20:04;99330.88;;;20.56;80.07
46583;BME280;32309;48.858;8.252;2023-07-24T08:22:05;99330.34;;;20.61;80.63
46583;BME280;32309;48.858;8.252;2023-07-24T08:24:06;99323.38;;;20.68;81.15
46583;BME280;32309;48.858;8.252;2023-07-24T08:26:06;99328.97;;;20.73;80.10
46583;BME280;32309;48.858;8.252;2023-07-24T08:28:07;99341.06;;;20.83;80.72
46583;BME280;32309;48.858;8.252;2023-07-24T08:30:07;99341.38;;;20.88;80.71
46583;BME280;32309;48.858;8.252;2023-07-24T08:32:08;99350.34;;;20.93;80.43
46583;BME280;32309;48.858;8.252;2023-07-24T08:34:08;99355.06;;;20.98;80.94
46583;BME280;32309;48.858;8.252;2023-07-24T08:36:09;99354.75;;;21.01;80.18
46583;BME280;32309;48.858;8.252;2023-07-24T08:38:11;99354.00;;;21.07;80.09
46583;BME280;32309;48.858;8.252;2023-07-24T08:40:11;99339.66;;;21.10;80.54
46583;BME280;32309;48.858;8.252;2023-07-24T08:42:12;99342.56;;;21.15;78.36
46583;BME280;32309;48.858;8.252;2023-07-24T08:44:13;99339.84;;;21.23;80.63
46583;BME280;32309;48.858;8.252;2023-07-24T08:46:13;99335.13;;;21.34;80.61
46583;BME280;32309;48.858;8.252;2023-07-24T08:48:16;99326.13;;;21.43;81.26
46583;BME280;32309;48.858;8.252;2023-07-24T08:50:18;99337.41;;;21.52;80.18
46583;BME280;32309;48.858;8.252;2023-07-24T08:52:20;99332.53;;;21.64;80.02
46583;BME280;32309;48.858;8.252;2023-07-24T08:54:20;99338.63;;;21.79;80.18
46583;BME280;32309;48.858;8.252;2023-07-24T08:56:21;99338.38;;;21.96;80.89
46583;BME280;32309;48.858;8.252;2023-07-24T08:58:21;99338.09;;;22.05;80.07
46583;BME280;32309;48.858;8.252;2023-07-24T09:00:22;99342.44;;;22.13;78.75
46583;BME280;32309;48.858;8.252;2023-07-24T09:02:22;99345.25;;;22.26;78.77
46583;BME280;32309;48.858;8.252;2023-07-24T09:04:23;99338.56;;;22.31;77.91
46583;BME280;32309;48.858;8.252;2023-07-24T09:06:26;99342.66;;;22.33;76.35
46583;BME280;32309;48.858;8.252;2023-07-24T09:08:30;99340.66;;;22.35;76.56
46583;BME280;32309;48.858;8.252;2023-07-24T09:10:31;99360.13;;;22.34;76.55
46583;BME280;32309;48.858;8.252;2023-07-24T09:12:31;99364.59;;;22.34;75.88
46583;BME280;32309;48.858;8.252;2023-07-24T09:14:32;99364.59;;;22.34;75.82
46583;BME280;32309;48.858;8.252;2023-07-24T09:16:32;99377.63;;;22.35;74.18
46583;BME280;32309;48.858;8.252;2023-07-24T09:18:39;99370.06;;;22.32;74.87
46583;BME280;32309;48.858;8.252;2023-07-24T09:20:41;99369.78;;;22.27;74.54
46583;BME280;32309;48.858;8.252;2023-07-24T09:22:53;99356.53;;;22.20;75.31
46583;BME280;32309;48.858;8.252;2023-07-24T09:24:54;99364.38;;;22.14;75.61
46583;BME280;32309;48.858;8.252;2023-07-24T09:26:56;99357.66;;;22.11;74.57
46583;BME280;32309;48.858;8.252;2023-07-24T09:28:56;99368.13;;;22.04;74.71
46583;BME280;32309;48.858;8.252;2023-07-24T09:30:57;99356.13;;;22.02;74.55
46583;BME280;32309;48.858;8.252;2023-07-24T09:33:00;99352.03;;;21.99;75.31
46583;BME280;32309;48.858;8.252;2023-07-24T10:01:04;99363.50;;;21.47;81.23
46583;BME280;32309;48.858;8.252;2023-07-24T10:03:17;99361.44;;;21.42;80.77
46583;BME280;32309;48.858;8.252;2023-07-24T10:05:18;99370.50;;;21.39;81.25
46583;BME280;32309;48.858;8.252;2023-07-24T10:07:18;99366.75;;;21.34;81.18
46583;BME280;32309;48.858;8.252;2023-07-24T10:09:21;99381.13;;;21.31;81.14
46583;BME280;32309;48.858;8.252;2023-07-24T10:11:24;99375.56;;;21.26;81.29
46583;BME280;32309;48.858;8.252;2023-07-24T10:13:26;99374.28;;;21.22;81.53
46583;BME280;32309;48.858;8.252;2023-07-24T10:15:27;99370.56;;;21.16;81.15
46583;BME280;32309;48.858;8.252;2023-07-24T10:17:37;99372.09;;;21.10;81.47
46583;BME280;32309;48.858;8.252;2023-07-24T10:19:39;99375.25;;;21.06;81.70
46583;BME280;32309;48.858;8.252;2023-07-24T10:21:46;99369.88;;;20.99;82.14
46583;BME280;32309;48.858;8.252;2023-07-24T10:23:47;99370.25;;;20.96;80.76
46583;BME280;32309;48.858;8.252;2023-07-24T10:25:49;99371.75;;;20.90;83.43
46583;BME280;32309;48.858;8.252;2023-07-24T10:27:50;99357.16;;;20.88;82.61
46583;BME280;32309;48.858;8.252;2023-07-24T10:29:59;99357.69;;;20.83;80.63
46583;BME280;32309;48.858;8.252;2023-07-24T10:32:00;99360.88;;;20.78;82.46
46583;BME280;32309;48.858;8.252;2023-07-24T10:34:07;99354.47;;;20.73;82.87
46583;BME280;32309;48.858;8.252;2023-07-24T10:36:08;99346.09;;;20.69;83.13
46583;BME280;32309;48.858;8.252;2023-07-24T10:38:10;99325.38;;;20.66;81.20
46583;BME280;32309;48.858;8.252;2023-07-24T10:40:20;99326.91;;;20.60;82.99
46583;BME280;32309;48.858;8.252;2023-07-24T10:42:22;99320.34;;;20.56;83.17
46583;BME280;32309;48.858;8.252;2023-07-24T10:44:32;99315.91;;;20.57;80.84
46583;BME280;32309;48.858;8.252;2023-07-24T10:46:36;99318.25;;;20.52;81.70
46583;BME280;32309;48.858;8.252;2023-07-24T10:48:44;99332.25;;;20.52;81.86
46583;BME280;32309;48.858;8.252;2023-07-24T10:50:47;99311.34;;;20.51;82.12
46583;BME280;32309;48.858;8.252;2023-07-24T10:52:49;99309.53;;;20.51;83.98
46583;BME280;32309;48.858;8.252;2023-07-24T10:54:50;99302.25;;;20.53;81.78
46583;BME280;32309;48.858;8.252;2023-07-24T10:56:57;99289.94;;;20.54;83.32
46583;BME280;32309;48.858;8.252;2023-07-24T10:59:02;99278.41;;;20.55;80.82
46583;BME280;32309;48.858;8.252;2023-07-24T11:01:04;99270.69;;;20.53;81.20
46583;BME280;32309;48.858;8.252;2023-07-24T11:03:07;99268.69;;;20.55;81.71
46583;BME280;32309;48.858;8.252;2023-07-24T11:05:09;99252.91;;;20.55;82.48
46583;BME280;32309;48.858;8.252;2023-07-24T11:07:09;99264.06;;;20.57;81.17
46583;BME280;32309;48.858;8.252;2023-07-24T11:09:10;99266.53;;;20.59;81.60
46583;BME280;32309;48.858;8.252;2023-07-24T11:11:10;99278.34;;;20.63;81.81
46583;BME280;32309;48.858;8.252;2023-07-24T11:13:12;99280.44;;;20.68;82.30
46583;BME280;32309;48.858;8.252;2023-07-24T11:15:12;99294.66;;;20.82;82.35
46583;BME280;32309;48.858;8.252;2023-07-24T11:17:13;99283.69;;;20.93;79.50
46583;BME280;32309;48.858;8.252;2023-07-24T11:19:21;99282.25;;;21.05;78.85
46583;BME280;32309;48.858;8.252;2023-07-24T11:21:22;99275.19;;;21.21;80.87
46583;BME280;32309;48.858;8.252;2023-07-24T11:23:24;99274.69;;;21.32;77.53
46583;BME280;32309;48.858;8.252;2023-07-24T11:25:24;99282.44;;;21.49;79.64
46583;BME280;32309;48.858;8.252;2023-07-24T11:27:24;99283.44;;;21.63;79.13
46583;BME280;32309;48.858;8.252;2023-07-24T11:29:25;99292.53;;;21.75;80.28
46583;BME280;32309;48.858;8.252;2023-07-24T11:31:25;99294.97;;;21.76;78.90
46583;BME280;32309;48.858;8.252;2023-07-24T11:33:26;99291.69;;;21.74;77.86
46583;BME280;32309;48.858;8.252;2023-07-24T11:35:26;99296.69;;;21.69;76.35
46583;BME280;32309;48.858;8.252;2023-07-24T11:37:27;99299.50;;;21.68;76.83
46583;BME280;32309;48.858;8.252;2023-07-24T11:39:27;99300.69;;;21.65;76.93
46583;BME280;32309;48.858;8.252;2023-07-24T11:41:28;99308.53;;;21.58;76.87
46583;BME280;32309;48.858;8.252;2023-07-24T11:43:29;99321.53;;;21.60;77.70
46583;BME280;32309;48.858;8.252;2023-07-24T11:45:30;99308.53;;;21.58;77.33
46583;BME280;32309;48.858;8.252;2023-07-24T11:47:44;99321.25;;;21.55;76.70
46583;BME280;32309;48.858;8.252;2023-07-24T11:49:56;99309.34;;;21.59;76.79
46583;BME280;32309;48.858;8.252;2023-07-24T11:52:06;99297.88;;;21.67;76.67
46583;BME280;32309;48.858;8.252;2023-07-24T11:54:07;99313.25;;;21.78;76.24
46583;BME280;32309;48.858;8.252;2023-07-24T11:56:13;99309.56;;;21.94;76.79
46583;BME280;32309;48.858;8.252;2023-07-24T11:58:15;99310.34;;;22.09;76.47
46583;BME280;32309;48.858;8.252;2023-07-24T12:00:19;99301.56;;;22.24;75.35
46583;BME280;32309;48.858;8.252;2023-07-24T12:02:21;99299.41;;;22.34;74.73
46583;BME280;32309;48.858;8.252;2023-07-24T12:04:21;99313.06;;;22.38;73.77
46583;BME280;32309;48.858;8.252;2023-07-24T12:06:21;99315.09;;;22.36;73.34
46583;BME280;32309;48.858;8.252;2023-07-24T12:08:31;99323.47;;;22.24;71.69
46583;BME280;32309;48.858;8.252;2023-07-24T12:10:36;99319.19;;;22.02;70.23
46583;BME280;32309;48.858;8.252;2023-07-24T12:12:45;99316.47;;;21.95;70.75
46583;BME280;32309;48.858;8.252;2023-07-24T12:14:46;99317.78;;;21.84;70.82
46583;BME280;32309;48.858;8.252;2023-07-24T12:16:47;99308.78;;;21.78;71.09
46583;BME280;32309;48.858;8.252;2023-07-24T12:18:47;99307.69;;;21.73;70.99
46583;BME280;32309;48.858;8.252;2023-07-24T12:20:47;99305.88;;;21.73;70.49
46583;BME280;32309;48.858;8.252;2023-07-24T12:22:47;99303.31;;;21.80;70.94
46583;BME280;32309;48.858;8.252;2023-07-24T12:24:48;99296.56;;;21.92;70.58
46583;BME280;32309;48.858;8.252;2023-07-24T12:26:48;99294.00;;;21.99;70.33
46583;BME280;32309;48.858;8.252;2023-07-24T12:28:48;99284.88;;;22.02;69.70
46583;BME280;32309;48.858;8.252;2023-07-24T12:30:48;99280.22;;;22.04;68.67
46583;BME280;32309;48.858;8.252;2023-07-24T12:32:49;99277.69;;;22.10;68.59
46583;BME280;32309;48.858;8.252;2023-07-24T13:31:19;99165.03;;;23.65;58.84
46583;BME280;32309;48.858;8.252;2023-07-24T13:33:22;99168.31;;;23.80;60.16
46583;BME280;32309;48.858;8.252;2023-07-24T13:35:35;99158.38;;;23.89;59.22
46583;BME280;32309;48.858;8.252;2023-07-24T13:37:35;99154.91;;;24.02;58.73
46583;BME280;32309;48.858;8.252;2023-07-24T13:39:35;99154.31;;;24.06;56.94
46583;BME280;32309;48.858;8.252;2023-07-24T13:41:36;99141.69;;;24.15;58.99
46583;BME280;32309;48.858;8.252;2023-07-24T13:43:38;99140.06;;;24.21;57.21
46583;BME280;32309;48.858;8.252;2023-07-24T13:45:38;99134.53;;;24.29;57.09
46583;BME280;32309;48.858;8.252;2023-07-24T13:47:38;99137.19;;;24.29;56.97
46583;BME280;32309;48.858;8.252;2023-07-24T13:49:38;99129.44;;;24.34;56.71
46583;BME280;32309;48.858;8.252;2023-07-24T13:51:39;99140.25;;;24.39;56.80
46583;BME280;32309;48.858;8.252;2023-07-24T13:53:39;99131.91;;;24.29;56.07
46583;BME280;32309;48.858;8.252;2023-07-24T13:55:39;99121.91;;;24.38;56.05
46583;BME280;32309;48.858;8.252;2023-07-24T13:57:40;99121.06;;;24.44;56.20
46583;BME280;32309;48.858;8.252;2023-07-24T13:59:40;99133.09;;;24.47;56.54
46583;BME280;32309;48.858;8.252;2023-07-24T14:01:40;99130.22;;;24.55;56.37
46583;BME280;32309;48.858;8.252;2023-07-24T14:03:40;99124.50;;;24.58;57.03
46583;BME280;32309;48.858;8.252;2023-07-24T14:05:41;99129.00;;;24.71;57.25
46583;BME280;32309;48.858;8.252;2023-07-24T14:07:41;99122.00;;;24.83;57.53
46583;BME280;32309;48.858;8.252;2023-07-24T14:09:41;99116.66;;;24.97;57.60
46583;BME280;32309;48.858;8.252;2023-07-24T14:11:42;99107.66;;;25.04;57.67
46583;BME280;32309;48.858;8.252;2023-07-24T14:13:42;99112.34;;;25.09;57.55
46583;BME280;32309;48.858;8.252;2023-07-24T14:15:43;99099.44;;;25.13;57.89
46583;BME280;32309;48.858;8.252;2023-07-24T14:17:43;99106.34;;;25.20;58.04
46583;BME280;32309;48.858;8.252;2023-07-24T14:19:43;99102.88;;;25.20;57.14
46583;BME280;32309;48.858;8.252;2023-07-24T14:21:44;99109.22;;;25.19;57.50
46583;BME280;32309;48.858;8.252;2023-07-24T14:23:45;99115.16;;;25.14;57.56
46583;BME280;32309;48.858;8.252;2023-07-24T14:25:45;99112.22;;;25.29;58.42
46583;BME280;32309;48.858;8.252;2023-07-24T14:27:45;99117.06;;;25.39;57.36
46583;BME280;32309;48.858;8.252;2023-07-24T14:29:45;99125.69;;;25.34;56.50
46583;BME280;32309;48.858;8.252;2023-07-24T14:31:46;99091.56;;;25.45;56.46
46583;BME280;32309;48.858;8.252;2023-07-24T14:33:46;99108.06;;;25.47;55.86
46583;BME280;32309;48.858;8.252;2023-07-24T14:35:46;99099.88;;;25.48;55.61
46583;BME280;32309;48.858;8.252;2023-07-24T14:37:46;99090.69;;;25.51;55.22
46583;BME280;32309;48.858;8.252;2023-07-24T14:39:47;99083.84;;;25.36;55.62
46583;BME280;32309;48.858;8.252;2023-07-24T14:41:47;99097.59;;;25.20;55.15
46583;BME280;32309;48.858;8.252;2023-07-24T14:43:47;99091.56;;;24.99;56.29
46583;BME280;32309;48.858;8.252;2023-07-24T14:45:48;99094.34;;;24.72;56.31
46583;BME280;32309;48.858;8.252;2023-07-24T14:47:48;99101.69;;;24.57;56.28
46583;BME280;32309;48.858;8.252;2023-07-24T14:49:51;99110.28;;;24.46;56.74